This is the latest recevied weather packets stored in our database for station/object N5ZP. If no packets are shown the sender has not sent any weather packets the latest 10 day(s).
| Time | Temp. | Humidity | Pressure | Rain* | Wind** | Luminosity | Snow |
|---|---|---|---|---|---|---|---|
| 1777798725 | 13.33° C | 75% | 1016.8 hPa | 0 mm | - | 0 W/m² | - |
| 1777797515 | 13.33° C | 73% | 1016.7 hPa | 0 mm | - | 0 W/m² | - |
| 1777797211 | 13.33° C | 74% | 1016.6 hPa | 0 mm | - | 0 W/m² | - |
| 1777796908 | 13.33° C | 74% | 1016.9 hPa | 0 mm | - | 0 W/m² | - |
| 1777796605 | 13.89° C | 73% | 1016.6 hPa | 0 mm | - | 0 W/m² | - |
| 1777796301 | 13.89° C | 72% | 1016.8 hPa | 0 mm | - | 0 W/m² | - |
| 1777795771 | 12.78° C | 75% | 1017 hPa | 0 mm | - | 0 W/m² | - |
| 1777795468 | 12.78° C | 75% | 1017 hPa | 0 mm | - | 0 W/m² | - |
| 1777795164 | 13.89° C | 75% | 1017 hPa | 0 mm | - | 0 W/m² | - |
| 1777794861 | 13.89° C | 72% | 1016.9 hPa | 0 mm | - | 0 W/m² | - |
| 1777794252 | 13.89° C | 72% | 1017 hPa | 0 mm | - | 0 W/m² | - |
| 1777793848 | 13.33° C | 75% | 1017.2 hPa | 0 mm | - | 0 W/m² | - |
| 1777793546 | 13.33° C | 75% | 1017.2 hPa | 0 mm | - | 0 W/m² | - |
| 1777793244 | 12.78° C | 80% | 1017.3 hPa | 0 mm | - | 0 W/m² | - |
| 1777792941 | 12.78° C | 80% | 1017.3 hPa | 0 mm | - | 0 W/m² | - |
| 1777792637 | 12.78° C | 80% | 1017.1 hPa | 0 mm | - | 0 W/m² | - |
| 1777792334 | 12.22° C | 81% | 1017.2 hPa | 0 mm | - | 0 W/m² | - |
| 1777791689 | 12.22° C | 83% | 1017.4 hPa | 0 mm | - | 0 W/m² | - |
| 1777791386 | 12.22° C | 83% | 1017.4 hPa | 0 mm | - | 0 W/m² | - |
| 1777791084 | 12.22° C | 83% | 1017.5 hPa | 0 mm | - | 0 W/m² | - |
| 1777790781 | 12.22° C | 82% | 1017.4 hPa | 0 mm | - | 0 W/m² | - |
| 1777790478 | 12.22° C | 81% | 1017.4 hPa | 0 mm | - | 0 W/m² | - |
| 1777790175 | 12.22° C | 82% | 1017.4 hPa | 0 mm | - | 0 W/m² | - |
| 1777789873 | 12.22° C | 82% | 1017.5 hPa | 0 mm | - | 0 W/m² | - |
| 1777789571 | 12.22° C | 82% | 1017.3 hPa | 0 mm | - | 0 W/m² | - |
* Rain latest hour (hover to see other rain measurements)
** Current wind speed in m/s (hover to see current wind gust speed)